Time;durP1;ratioP1;P1;durP2;ratioP2;P2;SDS_P1;SDS_P2;PMS_P1;PMS_P2;Temp;Humidity;BMP_temperature;BMP_pressure;BME280_temperature;BME280_humidity;BME280_pressure;Samples;Min_cycle;Max_cycle;Signal;HPM_P1;HPM_P2
2022/03/28 00:00:51;;;;;;;10.02;6.13;;;15.70;99.90;;;;;;5058921;28;20067;-71
2022/03/28 00:03:16;;;;;;;7.88;5.78;;;15.50;99.90;;;;;;5047206;28;20048;-73
2022/03/28 00:05:42;;;;;;;10.10;5.43;;;15.70;99.90;;;;;;5063668;28;20110;-73
2022/03/28 00:08:08;;;;;;;9.68;6.47;;;15.30;99.90;;;;;;5062831;28;20045;-74
2022/03/28 00:10:34;;;;;;;7.57;5.97;;;15.50;99.90;;;;;;5060109;28;20037;-72
2022/03/28 00:13:00;;;;;;;7.88;4.97;;;15.40;99.90;;;;;;5042950;28;20366;-73
2022/03/28 00:15:26;;;;;;;9.65;5.43;;;15.30;99.90;;;;;;5043269;28;20040;-72
2022/03/28 00:17:51;;;;;;;10.60;6.78;;;15.20;99.90;;;;;;5067167;28;20103;-72
2022/03/28 00:20:17;;;;;;;8.98;6.78;;;15.20;99.90;;;;;;5055160;28;20053;-73
2022/03/28 00:22:43;;;;;;;9.93;6.38;;;15.00;99.90;;;;;;5046613;28;20068;-72
2022/03/28 00:25:10;;;;;;;14.45;7.15;;;15.30;99.90;;;;;;5059197;28;20037;-72
2022/03/28 00:27:36;;;;;;;8.48;6.45;;;14.90;99.90;;;;;;5062056;28;20052;-72
2022/03/28 00:30:04;;;;;;;10.82;6.63;;;15.10;99.90;;;;;;5059733;28;20090;-72
2022/03/28 00:32:29;;;;;;;10.40;6.93;;;15.20;99.90;;;;;;5062248;28;20047;-73
2022/03/28 00:34:55;;;;;;;8.60;6.05;;;15.50;99.90;;;;;;5053797;28;20076;-72
2022/03/28 00:37:21;;;;;;;10.38;6.22;;;15.20;99.90;;;;;;5043092;28;20040;-72
2022/03/28 00:39:47;;;;;;;10.43;6.57;;;15.50;99.90;;;;;;5065916;28;20118;-73
2022/03/28 00:42:13;;;;;;;8.50;5.55;;;15.00;99.90;;;;;;5042617;28;20048;-72
2022/03/28 00:44:39;;;;;;;8.05;5.60;;;15.60;99.90;;;;;;5062138;28;20068;-73
2022/03/28 00:47:05;;;;;;;6.47;5.10;;;15.50;99.90;;;;;;5078469;28;20045;-72
2022/03/28 00:49:31;;;;;;;7.03;5.10;;;15.10;99.90;;;;;;5060009;28;20049;-72
2022/03/28 00:51:57;;;;;;;7.75;5.05;;;15.10;99.90;;;;;;5061750;28;20056;-73
2022/03/28 00:54:22;;;;;;;7.40;6.05;;;15.00;99.90;;;;;;5061520;28;20037;-73
2022/03/28 00:56:49;;;;;;;7.13;5.40;;;14.90;99.90;;;;;;5054438;28;20060;-71
2022/03/28 00:59:15;;;;;;;9.32;5.15;;;14.90;99.90;;;;;;5077886;28;20036;-72
2022/03/28 01:01:41;;;;;;;9.88;6.10;;;14.90;99.90;;;;;;5054477;28;20067;-73
2022/03/28 01:04:08;;;;;;;9.02;5.47;;;15.00;99.90;;;;;;5045387;28;20036;-72
2022/03/28 01:06:38;;;;;;;8.68;5.18;;;15.10;99.90;;;;;;5062129;28;20067;-73
2022/03/28 01:09:04;;;;;;;7.57;5.40;;;14.90;99.90;;;;;;5060030;28;20047;-72
2022/03/28 01:11:33;;;;;;;9.30;5.13;;;15.30;99.90;;;;;;5059240;28;20052;-71
2022/03/28 01:13:59;;;;;;;6.95;5.35;;;14.90;99.90;;;;;;5078606;28;20071;-71
2022/03/28 01:16:31;;;;;;;10.02;5.63;;;15.00;99.90;;;;;;5052567;28;20033;-72
2022/03/28 01:18:57;;;;;;;9.10;6.00;;;14.80;99.90;;;;;;5060057;28;20024;-72
2022/03/28 01:21:22;;;;;;;12.02;6.00;;;15.00;99.90;;;;;;5046601;28;20247;-72
2022/03/28 01:23:48;;;;;;;10.32;6.20;;;15.20;99.90;;;;;;5073712;28;20048;-73
2022/03/28 01:26:15;;;;;;;10.30;6.05;;;14.90;99.90;;;;;;5057445;28;20048;-73
2022/03/28 01:28:41;;;;;;;8.32;5.82;;;15.20;99.90;;;;;;5051088;28;20049;-72
2022/03/28 01:31:08;;;;;;;9.52;6.28;;;14.90;99.90;;;;;;5058387;28;20032;-73
2022/03/28 01:33:35;;;;;;;9.90;6.05;;;15.10;99.90;;;;;;5069237;28;20361;-73
2022/03/28 01:36:00;;;;;;;9.57;6.20;;;14.90;99.90;;;;;;5040832;28;20099;-72
2022/03/28 01:38:26;;;;;;;10.02;6.43;;;15.10;99.90;;;;;;5055997;28;20105;-72
2022/03/28 01:40:52;;;;;;;11.63;6.45;;;14.90;99.90;;;;;;5042335;28;20048;-74
2022/03/28 01:43:19;;;;;;;10.90;6.53;;;15.00;99.90;;;;;;5046402;28;20103;-74
2022/03/28 01:45:45;;;;;;;10.60;6.90;;;15.30;99.90;;;;;;5055300;28;20095;-73
2022/03/28 01:48:12;;;;;;;9.43;7.57;;;15.20;99.90;;;;;;5016914;28;20045;-73
2022/03/28 01:50:38;;;;;;;8.32;6.25;;;14.90;99.90;;;;;;5058840;28;20246;-73
2022/03/28 01:53:04;;;;;;;10.68;7.18;;;14.90;99.90;;;;;;5031307;28;20087;-74
2022/03/28 01:55:30;;;;;;;10.85;7.35;;;14.90;99.90;;;;;;5066071;28;20041;-73
2022/03/28 01:57:56;;;;;;;10.52;6.60;;;15.20;99.90;;;;;;5066594;28;20055;-74
2022/03/28 02:00:25;;;;;;;10.70;7.45;;;14.60;99.90;;;;;;5073953;28;20036;-74
2022/03/28 02:02:51;;;;;;;10.93;6.75;;;15.10;99.90;;;;;;5080028;28;20049;-73
2022/03/28 02:05:18;;;;;;;12.25;7.20;;;14.90;99.90;;;;;;5080076;28;20230;-74
2022/03/28 02:07:47;;;;;;;10.73;7.07;;;14.60;99.90;;;;;;5064138;28;20333;-73
2022/03/28 02:10:16;;;;;;;13.55;7.18;;;14.60;99.90;;;;;;5082291;28;20040;-74
2022/03/28 02:12:42;;;;;;;18.75;7.25;;;14.30;99.90;;;;;;5060205;28;20318;-73
2022/03/28 02:15:10;;;;;;;13.85;7.32;;;14.60;99.90;;;;;;5049421;28;20036;-73
2022/03/28 02:17:36;;;;;;;13.63;7.43;;;14.50;99.90;;;;;;5080187;28;20100;-72
2022/03/28 02:20:05;;;;;;;10.63;7.13;;;14.60;99.90;;;;;;5045498;28;20083;-72
2022/03/28 02:22:32;;;;;;;13.75;7.25;;;14.40;99.90;;;;;;5062601;28;20043;-72
2022/03/28 02:24:58;;;;;;;12.48;6.63;;;14.40;99.90;;;;;;5081994;28;20041;-73
2022/03/28 02:27:26;;;;;;;12.10;6.57;;;14.70;99.90;;;;;;5053577;28;20052;-72
2022/03/28 02:29:52;;;;;;;11.18;6.13;;;14.60;99.90;;;;;;5044371;28;20323;-72
2022/03/28 02:32:18;;;;;;;8.95;4.93;;;14.60;99.90;;;;;;5064578;28;20044;-72
2022/03/28 02:34:44;;;;;;;7.13;4.28;;;14.20;99.90;;;;;;5081973;28;20033;-73
2022/03/28 02:37:09;;;;;;;6.32;3.42;;;14.40;99.90;;;;;;5068930;28;20350;-72
2022/03/28 02:39:35;;;;;;;6.63;3.70;;;14.00;99.90;;;;;;5028389;28;20212;-72
2022/03/28 02:42:01;;;;;;;6.35;4.30;;;14.20;99.90;;;;;;5071187;28;20032;-71
2022/03/28 02:44:27;;;;;;;7.03;4.15;;;14.30;99.90;;;;;;5050912;28;20125;-73
2022/03/28 02:46:52;;;;;;;5.97;3.63;;;14.10;99.90;;;;;;5015382;28;20044;-73
2022/03/28 02:49:19;;;;;;;7.20;3.88;;;14.40;99.90;;;;;;5040551;28;20037;-74
2022/03/28 02:51:45;;;;;;;8.05;4.10;;;14.00;99.90;;;;;;5061672;28;20040;-73
2022/03/28 02:54:11;;;;;;;6.90;3.67;;;14.10;99.90;;;;;;5044679;28;20120;-72
2022/03/28 02:56:37;;;;;;;12.63;6.70;;;14.00;99.90;;;;;;5074016;28;20050;-72
2022/03/28 02:59:03;;;;;;;11.70;6.15;;;14.00;99.90;;;;;;5067453;28;20064;-74
2022/03/28 03:01:29;;;;;;;12.93;5.75;;;14.10;99.90;;;;;;5048766;28;20036;-72
2022/03/28 03:03:55;;;;;;;11.88;6.20;;;13.90;99.90;;;;;;5044552;28;20063;-72
2022/03/28 03:06:21;;;;;;;10.70;5.70;;;13.70;99.90;;;;;;5044396;28;20072;-72
2022/03/28 03:08:47;;;;;;;11.80;5.75;;;13.90;99.90;;;;;;5053400;28;20100;-73
2022/03/28 03:11:13;;;;;;;10.32;5.68;;;13.70;99.90;;;;;;5064408;28;20226;-73
2022/03/28 03:13:39;;;;;;;9.63;5.40;;;14.10;99.90;;;;;;5064631;28;20032;-73
2022/03/28 03:16:05;;;;;;;8.38;5.22;;;14.20;99.90;;;;;;5054919;28;20087;-72
2022/03/28 03:18:31;;;;;;;11.52;6.30;;;13.90;99.90;;;;;;5046693;28;20107;-72
2022/03/28 03:20:58;;;;;;;11.32;6.75;;;14.00;99.90;;;;;;5045677;28;20041;-72
2022/03/28 03:23:24;;;;;;;13.27;6.70;;;14.00;99.90;;;;;;5027868;28;20048;-72
2022/03/28 03:25:50;;;;;;;11.75;6.95;;;13.50;99.90;;;;;;5045214;28;20045;-73
2022/03/28 03:28:16;;;;;;;13.07;6.53;;;14.20;99.90;;;;;;5046071;28;20056;-72
2022/03/28 03:30:43;;;;;;;11.75;7.18;;;14.10;99.90;;;;;;5053681;28;20082;-73
2022/03/28 03:33:09;;;;;;;14.50;7.18;;;13.60;99.90;;;;;;5060460;28;20064;-72
2022/03/28 03:35:35;;;;;;;13.27;6.68;;;14.30;99.90;;;;;;5044401;28;20323;-73
2022/03/28 03:38:01;;;;;;;8.85;5.20;;;14.20;99.90;;;;;;5043943;28;20111;-72
2022/03/28 03:40:27;;;;;;;10.35;6.15;;;14.20;99.90;;;;;;5068771;28;20044;-73
2022/03/28 03:42:52;;;;;;;11.20;6.53;;;13.90;99.90;;;;;;5080715;28;20116;-74
2022/03/28 03:45:18;;;;;;;14.15;8.27;;;14.00;99.90;;;;;;5078697;28;20223;-73
2022/03/28 03:47:44;;;;;;;16.70;9.20;;;13.60;99.90;;;;;;5063142;28;20304;-74
2022/03/28 03:50:10;;;;;;;18.27;10.13;;;13.80;99.90;;;;;;5070308;28;20067;-74
2022/03/28 03:52:36;;;;;;;17.67;10.60;;;14.20;99.90;;;;;;5080579;28;20326;-73
2022/03/28 03:55:02;;;;;;;17.60;10.10;;;13.80;99.90;;;;;;5072343;28;20083;-74
2022/03/28 03:57:28;;;;;;;15.45;9.80;;;14.00;99.90;;;;;;5026928;28;20045;-73
2022/03/28 03:59:54;;;;;;;13.15;7.82;;;13.90;99.90;;;;;;5062128;28;20108;-75
2022/03/28 04:02:20;;;;;;;11.25;7.22;;;13.90;99.90;;;;;;5065864;28;20246;-74
2022/03/28 04:04:46;;;;;;;12.07;7.18;;;13.90;99.90;;;;;;5027651;28;20139;-73
2022/03/28 04:07:11;;;;;;;9.23;6.18;;;13.80;99.90;;;;;;5068088;28;20068;-74
2022/03/28 04:09:37;;;;;;;6.07;3.83;;;14.00;99.90;;;;;;5061426;28;20079;-72
2022/03/28 04:12:03;;;;;;;4.18;2.70;;;13.70;99.90;;;;;;5057426;28;20041;-74
2022/03/28 04:14:29;;;;;;;4.10;2.55;;;14.00;99.90;;;;;;5055370;28;20039;-74
2022/03/28 04:16:55;;;;;;;3.50;2.55;;;14.10;99.90;;;;;;5075811;28;20079;-75
2022/03/28 04:19:21;;;;;;;2.97;2.15;;;13.90;99.90;;;;;;5077960;28;20222;-73
2022/03/28 04:21:48;;;;;;;3.13;2.20;;;13.80;99.90;;;;;;5061285;28;20090;-73
2022/03/28 04:24:14;;;;;;;3.65;2.42;;;14.10;99.90;;;;;;5063260;28;20047;-73
2022/03/28 04:26:39;;;;;;;5.68;2.90;;;13.60;99.90;;;;;;5061232;28;20052;-74
2022/03/28 04:29:05;;;;;;;4.40;2.78;;;14.10;99.90;;;;;;5071966;28;20071;-73
2022/03/28 04:31:31;;;;;;;6.47;4.10;;;14.10;99.90;;;;;;5065962;28;20094;-73
2022/03/28 04:33:57;;;;;;;7.40;4.32;;;14.20;99.90;;;;;;5056450;28;20040;-72
2022/03/28 04:36:23;;;;;;;11.13;5.40;;;13.80;99.90;;;;;;5042391;28;20087;-73
2022/03/28 04:38:49;;;;;;;14.95;7.88;;;14.40;99.90;;;;;;5061741;28;20234;-74
2022/03/28 04:41:15;;;;;;;15.25;7.72;;;13.90;99.90;;;;;;5062591;28;20032;-72
2022/03/28 04:43:41;;;;;;;16.20;8.90;;;13.70;99.90;;;;;;5079572;28;20303;-74
2022/03/28 04:46:07;;;;;;;18.13;9.25;;;14.10;99.90;;;;;;5076469;28;20032;-74
2022/03/28 04:48:33;;;;;;;18.73;10.25;;;13.60;99.90;;;;;;5058310;28;20435;-73
2022/03/28 04:50:58;;;;;;;20.30;9.68;;;14.00;99.90;;;;;;5039994;28;20095;-74
2022/03/28 04:53:24;;;;;;;18.40;9.27;;;13.70;99.90;;;;;;5059212;28;20215;-74
2022/03/28 04:55:50;;;;;;;17.25;8.05;;;14.10;99.90;;;;;;5061772;28;20346;-74
2022/03/28 04:58:16;;;;;;;14.30;6.57;;;13.70;99.90;;;;;;5077901;28;20051;-74
2022/03/28 05:00:43;;;;;;;11.73;6.43;;;14.20;99.90;;;;;;5043743;28;20040;-73
2022/03/28 05:03:09;;;;;;;11.25;6.57;;;14.20;99.90;;;;;;5040667;28;20107;-74
2022/03/28 05:05:34;;;;;;;11.55;6.32;;;14.30;99.90;;;;;;5072185;28;20048;-73
2022/03/28 05:08:00;;;;;;;11.35;6.35;;;14.20;99.90;;;;;;5059343;28;20040;-73
2022/03/28 05:10:26;;;;;;;13.55;6.88;;;14.80;99.90;;;;;;5025935;28;20047;-73
2022/03/28 05:12:52;;;;;;;16.92;8.52;;;14.30;99.90;;;;;;5067359;28;20039;-74
2022/03/28 05:15:17;;;;;;;19.25;8.77;;;14.50;99.90;;;;;;5062067;28;20037;-72
2022/03/28 05:17:43;;;;;;;20.13;9.30;;;13.90;99.90;;;;;;5037665;28;20173;-74
2022/03/28 05:20:09;;;;;;;18.08;8.98;;;14.50;99.90;;;;;;5032954;28;20040;-74
2022/03/28 05:22:35;;;;;;;19.20;10.05;;;14.80;99.90;;;;;;5067531;28;20091;-73
2022/03/28 05:25:02;;;;;;;23.83;11.77;;;14.90;99.90;;;;;;5060913;28;20037;-74
2022/03/28 05:27:28;;;;;;;25.30;13.43;;;13.90;99.90;;;;;;5070455;28;20239;-75
2022/03/28 05:29:54;;;;;;;26.10;13.90;;;13.90;99.90;;;;;;5054591;28;20049;-74
2022/03/28 05:32:19;;;;;;;28.40;14.48;;;15.00;99.90;;;;;;5075867;28;20021;-73
2022/03/28 05:34:45;;;;;;;25.17;13.25;;;14.40;99.90;;;;;;5043325;28;20071;-72
2022/03/28 05:37:16;;;;;;;31.23;16.55;;;14.30;99.90;;;;;;5059363;28;20212;-74
2022/03/28 05:39:44;;;;;;;32.85;15.93;;;14.30;99.90;;;;;;5061540;28;20076;-73
2022/03/28 05:42:09;;;;;;;34.83;17.95;;;14.30;99.90;;;;;;5063201;28;20243;-72
2022/03/28 05:44:35;;;;;;;35.97;19.60;;;14.10;99.90;;;;;;5057017;28;20065;-72
2022/03/28 05:47:01;;;;;;;24.30;13.90;;;14.40;99.90;;;;;;5043315;28;20044;-72
2022/03/28 05:49:27;;;;;;;23.27;12.63;;;14.80;99.90;;;;;;5055129;28;20045;-73
2022/03/28 05:51:53;;;;;;;26.08;15.27;;;14.30;99.90;;;;;;5043419;28;20067;-73
2022/03/28 05:54:20;;;;;;;27.42;15.18;;;14.80;99.90;;;;;;5079347;28;20227;-72
2022/03/28 05:56:48;;;;;;;26.10;14.98;;;14.80;99.90;;;;;;5062909;28;20320;-73
2022/03/28 05:59:14;;;;;;;35.47;18.60;;;14.70;99.90;;;;;;5070096;28;20315;-72
2022/03/28 06:01:40;;;;;;;31.85;18.05;;;14.90;99.90;;;;;;5051094;28;20350;-73
2022/03/28 06:04:06;;;;;;;34.72;18.95;;;14.30;99.90;;;;;;5059496;28;20053;-73
2022/03/28 06:06:32;;;;;;;41.28;19.70;;;14.50;99.90;;;;;;5059230;28;20040;-73
2022/03/28 06:08:58;;;;;;;34.38;18.83;;;15.00;99.90;;;;;;5063077;28;20049;-74
2022/03/28 06:11:24;;;;;;;31.00;18.08;;;14.40;99.90;;;;;;5076602;28;20276;-74
2022/03/28 06:13:50;;;;;;;28.98;16.40;;;14.90;99.90;;;;;;5062161;28;20334;-74
2022/03/28 06:16:16;;;;;;;28.52;16.35;;;14.40;99.90;;;;;;5057123;28;20033;-73
2022/03/28 06:18:42;;;;;;;28.35;15.98;;;15.20;99.90;;;;;;5057870;28;20331;-72
2022/03/28 06:21:08;;;;;;;30.52;16.33;;;14.50;99.90;;;;;;5025401;28;20041;-73
2022/03/28 06:23:37;;;;;;;25.73;14.77;;;15.10;99.90;;;;;;5072963;28;20178;-73
2022/03/28 06:26:04;;;;;;;23.77;14.32;;;14.60;99.90;;;;;;5077585;28;20084;-73
2022/03/28 06:28:30;;;;;;;19.58;12.82;;;14.60;99.90;;;;;;5077507;28;20119;-75
2022/03/28 06:30:57;;;;;;;20.55;12.65;;;14.90;99.90;;;;;;5064011;28;20079;-76
2022/03/28 06:33:23;;;;;;;19.77;12.80;;;14.70;99.90;;;;;;5076518;28;20036;-75
2022/03/28 06:35:49;;;;;;;19.80;12.95;;;14.90;99.90;;;;;;5061226;28;20259;-77
2022/03/28 06:38:15;;;;;;;19.80;12.70;;;14.50;99.90;;;;;;5077420;28;20055;-74
2022/03/28 06:40:41;;;;;;;22.80;14.32;;;15.10;99.90;;;;;;5050196;28;20036;-73
2022/03/28 06:43:06;;;;;;;23.10;14.65;;;15.00;99.90;;;;;;5076688;28;20056;-74
2022/03/28 06:45:33;;;;;;;13.70;9.23;;;15.00;99.90;;;;;;5059771;28;20040;-72
2022/03/28 06:47:59;;;;;;;14.18;9.85;;;15.30;99.90;;;;;;5064798;28;20056;-73
2022/03/28 06:50:25;;;;;;;11.15;8.15;;;14.60;99.90;;;;;;5061073;28;20530;-73
2022/03/28 06:52:53;;;;;;;8.85;6.65;;;14.60;99.90;;;;;;5063888;28;20378;-73
2022/03/28 06:55:20;;;;;;;9.60;7.10;;;15.30;99.90;;;;;;5060619;28;20045;-73
2022/03/28 06:57:45;;;;;;;9.27;6.30;;;14.80;99.90;;;;;;5061381;28;20315;-73
2022/03/28 07:00:12;;;;;;;9.25;6.10;;;14.80;99.90;;;;;;5080089;28;20078;-74
2022/03/28 07:02:39;;;;;;;9.20;6.32;;;14.90;99.90;;;;;;5076845;28;20043;-74
2022/03/28 07:05:06;;;;;;;7.15;5.68;;;15.20;99.90;;;;;;5074935;28;20192;-74
2022/03/28 07:07:58;;;;;;;8.13;6.28;;;15.40;99.90;;;;;;5047581;28;20040;-73
2022/03/28 07:10:24;;;;;;;7.10;5.72;;;15.10;99.90;;;;;;5076388;28;20277;-74
2022/03/28 07:12:54;;;;;;;7.72;5.68;;;15.20;99.90;;;;;;5063547;28;20025;-74
2022/03/28 07:15:20;;;;;;;7.07;5.63;;;15.20;99.90;;;;;;5064193;28;20063;-74
2022/03/28 07:18:02;;;;;;;7.20;5.50;;;15.00;99.90;;;;;;5081194;28;20036;-74
2022/03/28 07:20:30;;;;;;;8.00;6.00;;;15.00;99.90;;;;;;5080616;28;20076;-74
2022/03/28 07:22:57;;;;;;;10.10;5.65;;;14.70;99.90;;;;;;5061264;28;20064;-74
2022/03/28 07:25:24;;;;;;;10.40;5.63;;;15.10;99.90;;;;;;5047655;28;20307;-74
2022/03/28 07:27:50;;;;;;;8.30;5.45;;;15.10;99.90;;;;;;5047475;28;20061;-74
2022/03/28 07:30:17;;;;;;;9.43;7.22;;;14.90;99.90;;;;;;5064175;28;20060;-74
2022/03/28 07:32:44;;;;;;;8.93;6.50;;;14.80;99.90;;;;;;5065517;28;20049;-73
2022/03/28 07:35:10;;;;;;;8.88;5.55;;;15.10;99.90;;;;;;5048128;28;20111;-74
2022/03/28 07:37:40;;;;;;;11.00;6.43;;;14.90;99.90;;;;;;5047100;28;20037;-74
2022/03/28 07:40:08;;;;;;;8.00;5.50;;;14.90;99.90;;;;;;5047126;28;20281;-75
2022/03/28 07:42:35;;;;;;;8.45;6.15;;;15.30;99.90;;;;;;5052002;28;20075;-75
2022/03/28 07:45:02;;;;;;;8.13;6.07;;;15.20;99.90;;;;;;5079998;28;20214;-75
2022/03/28 07:47:28;;;;;;;9.38;6.40;;;15.00;99.90;;;;;;5067169;28;20048;-74
2022/03/28 07:49:55;;;;;;;9.57;6.75;;;14.70;99.90;;;;;;5062948;28;20044;-74
2022/03/28 07:52:22;;;;;;;9.52;6.85;;;15.20;99.90;;;;;;5055002;28;20515;-73
2022/03/28 07:54:48;;;;;;;10.82;7.57;;;14.80;99.90;;;;;;5047666;28;20044;-75
2022/03/28 07:57:15;;;;;;;10.50;7.63;;;15.20;99.90;;;;;;5031736;28;20045;-74
2022/03/28 07:59:46;;;;;;;14.25;8.00;;;14.60;99.90;;;;;;5030255;28;20048;-73
2022/03/28 08:02:13;;;;;;;13.15;8.25;;;14.90;99.90;;;;;;5062816;28;20422;-73
2022/03/28 08:04:39;;;;;;;13.68;8.45;;;14.90;99.90;;;;;;5063904;28;20040;-73
2022/03/28 08:07:08;;;;;;;15.00;8.20;;;14.80;99.90;;;;;;5046957;28;20047;-74
2022/03/28 08:09:35;;;;;;;15.27;8.15;;;14.60;99.90;;;;;;5063053;28;20045;-74
2022/03/28 08:12:00;;;;;;;13.13;8.25;;;14.90;99.90;;;;;;5046402;28;20045;-73
2022/03/28 08:14:26;;;;;;;13.55;8.88;;;14.80;99.90;;;;;;5063387;28;20138;-73
2022/03/28 08:16:53;;;;;;;13.80;8.63;;;15.20;99.90;;;;;;5020992;28;20033;-73
2022/03/28 08:19:19;;;;;;;14.07;8.38;;;14.90;99.90;;;;;;5059736;28;20045;-73
2022/03/28 08:21:44;;;;;;;17.88;9.30;;;14.70;99.90;;;;;;5059328;28;20052;-73
2022/03/28 08:24:10;;;;;;;14.63;9.10;;;15.10;99.90;;;;;;5062857;28;20047;-73
2022/03/28 08:26:36;;;;;;;16.08;8.70;;;14.70;99.90;;;;;;5042784;28;20319;-74
2022/03/28 08:29:03;;;;;;;17.65;9.88;;;14.90;99.90;;;;;;5042919;28;20076;-74
2022/03/28 08:31:29;;;;;;;15.70;10.18;;;14.40;99.90;;;;;;5059351;28;20043;-73
2022/03/28 08:33:55;;;;;;;16.17;9.52;;;14.70;99.90;;;;;;5055044;28;20040;-73
2022/03/28 08:36:22;;;;;;;17.40;11.02;;;14.50;99.90;;;;;;5063281;28;20199;-74
2022/03/28 08:38:49;;;;;;;18.80;11.18;;;14.50;99.90;;;;;;5062072;28;20040;-73
2022/03/28 08:41:17;;;;;;;19.50;11.38;;;14.40;99.90;;;;;;5079412;28;20285;-73
2022/03/28 08:43:43;;;;;;;17.25;11.68;;;14.50;99.90;;;;;;5041987;28;20047;-73
2022/03/28 08:46:09;;;;;;;16.42;11.00;;;14.30;99.90;;;;;;5061217;28;20048;-73
2022/03/28 08:48:40;;;;;;;17.33;10.95;;;14.50;99.90;;;;;;5058621;28;20056;-74
2022/03/28 08:51:08;;;;;;;18.95;10.60;;;14.30;99.90;;;;;;5042914;28;20126;-73
2022/03/28 08:53:34;;;;;;;18.00;11.02;;;14.30;99.90;;;;;;5061397;28;20060;-73
2022/03/28 08:56:00;;;;;;;16.00;10.63;;;14.60;99.90;;;;;;5058294;28;20341;-73
2022/03/28 08:58:26;;;;;;;15.85;9.73;;;14.20;99.90;;;;;;5060810;28;20067;-74
2022/03/28 09:00:52;;;;;;;15.98;10.23;;;14.30;99.90;;;;;;5052758;28;20388;-74
2022/03/28 09:03:18;;;;;;;13.63;9.85;;;14.30;99.90;;;;;;5048294;28;20057;-73
2022/03/28 09:05:49;;;;;;;12.82;9.60;;;14.50;99.90;;;;;;5061199;28;20249;-73
2022/03/28 09:08:15;;;;;;;14.65;9.82;;;14.60;99.90;;;;;;5059608;28;20044;-74
2022/03/28 09:10:47;;;;;;;16.30;9.43;;;14.40;99.90;;;;;;5072405;28;20108;-73
2022/03/28 09:13:16;;;;;;;15.70;9.93;;;14.30;99.90;;;;;;5056311;28;20037;-73
2022/03/28 09:15:53;;;;;;;15.00;9.88;;;14.70;99.90;;;;;;5027367;28;20055;-73
2022/03/28 09:18:37;;;;;;;16.50;10.30;;;14.20;99.90;;;;;;5056270;28;20309;-73
2022/03/28 09:21:10;;;;;;;14.93;9.60;;;14.10;99.90;;;;;;5038889;28;20154;-73
2022/03/28 09:23:40;;;;;;;12.40;9.50;;;14.30;99.90;;;;;;5052144;28;20063;-73
2022/03/28 09:26:24;;;;;;;13.40;9.88;;;14.10;99.90;;;;;;5058001;28;20044;-73
2022/03/28 09:28:58;;;;;;;14.77;10.70;;;13.90;99.90;;;;;;5055939;28;20121;-73
2022/03/28 09:31:44;;;;;;;13.75;10.02;;;14.20;99.90;;;;;;5072668;28;20111;-73
2022/03/28 09:34:09;;;;;;;;;;;13.90;99.90;;;;;;5056506;28;20262;-73
2022/03/28 09:36:55;;;;;;;12.73;8.55;;;14.10;99.90;;;;;;5059984;28;19928;-73
2022/03/28 09:39:24;;;;;;;14.93;10.52;;;14.10;99.90;;;;;;5056190;28;20059;-72
2022/03/28 09:42:08;;;;;;;15.82;10.30;;;14.10;99.90;;;;;;5055756;28;20044;-73
2022/03/28 09:44:35;;;;;;;16.58;11.60;;;13.80;99.90;;;;;;5055371;28;20263;-73
2022/03/28 09:47:22;;;;;;;17.70;10.80;;;13.50;99.90;;;;;;5048927;28;20048;-72
2022/03/28 09:49:51;;;;;;;17.23;10.55;;;13.50;99.90;;;;;;5061571;28;20045;-73
2022/03/28 09:52:20;;;;;;;15.85;11.13;;;13.30;99.90;;;;;;5052336;28;20048;-72
2022/03/28 09:55:06;;;;;;;17.88;11.70;;;13.50;99.90;;;;;;5052125;28;20044;-72
2022/03/28 09:57:36;;;;;;;15.93;10.52;;;13.40;99.90;;;;;;5055150;28;20047;-72
2022/03/28 10:00:19;;;;;;;13.63;9.77;;;13.70;99.90;;;;;;5038797;28;20044;-73
2022/03/28 10:02:46;;;;;;;15.35;10.55;;;13.40;99.90;;;;;;5055198;28;20044;-73
2022/03/28 10:05:12;;;;;;;16.75;10.75;;;13.20;99.90;;;;;;5039273;28;20273;-73
2022/03/28 10:08:06;;;;;;;16.77;11.20;;;13.20;99.90;;;;;;5056782;28;20041;-74
2022/03/28 10:10:32;;;;;;;14.43;9.98;;;13.10;99.90;;;;;;5069360;28;20052;-73
2022/03/28 10:13:00;;;;;;;16.05;11.95;;;13.00;99.90;;;;;;5072755;28;20111;-74
2022/03/28 10:15:26;;;;;;;15.07;10.20;;;13.00;99.90;;;;;;5055809;28;20118;-73
2022/03/28 10:17:52;;;;;;;16.88;10.45;;;12.70;99.90;;;;;;5038476;28;20044;-73
2022/03/28 10:20:18;;;;;;;16.40;11.25;;;13.10;99.90;;;;;;5056827;28;20078;-74
2022/03/28 10:22:48;;;;;;;15.57;11.82;;;12.80;99.90;;;;;;5058848;28;20048;-73
2022/03/28 10:25:19;;;;;;;16.77;11.23;;;13.10;99.90;;;;;;5075845;28;20083;-72
2022/03/28 10:27:46;;;;;;;15.63;10.93;;;12.70;99.90;;;;;;5058149;28;20048;-73
2022/03/28 10:30:27;;;;;;;15.82;10.05;;;12.50;99.90;;;;;;5057842;28;20180;-73
2022/03/28 10:33:11;;;;;;;15.63;10.95;;;12.30;99.90;;;;;;5062284;28;20062;-73
2022/03/28 10:35:38;;;;;;;15.77;11.68;;;12.70;99.90;;;;;;5042229;28;20048;-73
2022/03/28 10:38:18;;;;;;;14.93;10.30;;;12.80;99.90;;;;;;5058931;28;20419;-73
2022/03/28 10:41:08;;;;;;;16.85;11.25;;;12.30;99.90;;;;;;5041993;28;20045;-73
2022/03/28 10:43:34;;;;;;;15.43;10.73;;;12.30;99.90;;;;;;5044086;28;20047;-73
2022/03/28 10:46:01;;;;;;;15.65;10.52;;;12.10;99.90;;;;;;5026342;28;20048;-73
2022/03/28 10:48:41;;;;;;;18.08;11.15;;;12.20;99.90;;;;;;5041685;28;20119;-73
2022/03/28 10:51:12;;;;;;;16.25;11.30;;;11.80;99.90;;;;;;5065935;28;20044;-74
2022/03/28 10:53:47;;;;;;;16.55;11.35;;;12.10;99.90;;;;;;5041908;28;20380;-74
2022/03/28 10:56:17;;;;;;;;;;;12.00;99.90;;;;;;5059330;28;20230;-74
2022/03/28 10:58:52;;;;;;;14.85;10.60;;;11.90;99.90;;;;;;5058316;28;19987;-73
2022/03/28 11:01:19;;;;;;;15.85;10.95;;;11.90;99.90;;;;;;5058414;28;20313;-73
2022/03/28 11:03:46;;;;;;;14.98;10.70;;;12.10;99.90;;;;;;5075086;28;20082;-73
2022/03/28 11:06:18;;;;;;;16.30;10.88;;;11.60;99.90;;;;;;5075279;28;20052;-73
2022/03/28 11:09:00;;;;;;;15.18;10.60;;;11.70;99.90;;;;;;5074882;28;20070;-73
2022/03/28 11:11:31;;;;;;;15.55;11.38;;;11.90;99.90;;;;;;5058265;28;20067;-73
2022/03/28 11:13:59;;;;;;;15.60;12.23;;;11.50;99.90;;;;;;5074961;28;20048;-73
2022/03/28 11:16:53;;;;;;;16.60;11.80;;;11.80;99.90;;;;;;5074375;28;20044;-73
2022/03/28 11:19:32;;;;;;;15.32;10.95;;;11.80;99.90;;;;;;5075183;28;20391;-73
2022/03/28 11:22:04;;;;;;;22.75;13.00;;;11.90;99.90;;;;;;5057165;28;20200;-73
2022/03/28 11:24:52;;;;;;;18.75;11.57;;;11.40;99.90;;;;;;5057752;28;20342;-73
2022/03/28 11:27:19;;;;;;;16.02;12.32;;;11.60;99.90;;;;;;5058133;28;20247;-73
2022/03/28 11:29:46;;;;;;;17.23;12.68;;;11.10;99.90;;;;;;5055725;28;20353;-73
2022/03/28 11:32:18;;;;;;;16.70;12.27;;;11.00;99.90;;;;;;5073104;28;20078;-74
2022/03/28 11:34:54;;;;;;;17.55;12.07;;;11.20;99.90;;;;;;5074479;28;20040;-74
2022/03/28 11:37:24;;;;;;;15.93;12.25;;;11.10;99.90;;;;;;5074806;28;20055;-73
2022/03/28 11:39:58;;;;;;;19.60;11.93;;;10.70;99.90;;;;;;5057653;28;20270;-73
2022/03/28 11:42:27;;;;;;;17.42;13.00;;;11.30;99.90;;;;;;5060183;28;20386;-73
2022/03/28 11:44:54;;;;;;;15.93;11.88;;;11.20;99.90;;;;;;5053504;28;20147;-73
2022/03/28 11:47:21;;;;;;;17.92;11.98;;;11.50;99.90;;;;;;5038180;28;20076;-73
2022/03/28 11:50:03;;;;;;;15.25;10.80;;;11.70;99.90;;;;;;5045927;28;20044;-73
2022/03/28 11:52:29;;;;;;;13.05;10.55;;;11.70;99.90;;;;;;5073535;28;20112;-73
2022/03/28 11:54:57;;;;;;;17.60;12.30;;;11.60;99.90;;;;;;5060419;28;20063;-73
2022/03/28 12:00:24;;;;;;;15.88;11.68;;;11.40;99.90;;;;;;5063654;28;20040;-73
2022/03/28 12:02:55;;;;;;;15.30;11.68;;;11.30;99.90;;;;;;5073254;28;20063;-73
2022/03/28 12:05:33;;;;;;;15.18;11.82;;;11.30;99.90;;;;;;5043230;28;20044;-76
2022/03/28 12:08:01;;;;;;;15.43;11.75;;;11.30;99.90;;;;;;5041572;28;20067;-73
2022/03/28 12:10:29;;;;;;;15.88;12.57;;;11.50;99.90;;;;;;5041034;28;20055;-72
2022/03/28 12:13:00;;;;;;;15.23;11.35;;;11.60;99.90;;;;;;5037215;28;20072;-73
2022/03/28 12:15:32;;;;;;;13.98;11.20;;;11.40;99.90;;;;;;5067379;28;20075;-73
2022/03/28 12:17:59;;;;;;;14.15;11.07;;;11.40;99.90;;;;;;5071293;28;20074;-73
2022/03/28 12:20:28;;;;;;;15.05;12.25;;;11.70;99.90;;;;;;5072345;28;20086;-74
2022/03/28 12:22:58;;;;;;;15.57;11.63;;;11.70;99.90;;;;;;5045873;28;20102;-75
2022/03/28 12:25:37;;;;;;;14.52;11.07;;;11.50;99.90;;;;;;5063279;28;20267;-74
2022/03/28 12:28:12;;;;;;;17.63;11.98;;;11.70;99.90;;;;;;5068187;28;20290;-73
2022/03/28 12:30:55;;;;;;;15.50;11.73;;;11.60;99.90;;;;;;5055733;28;20056;-73
2022/03/28 12:33:39;;;;;;;15.13;11.23;;;11.70;99.90;;;;;;5038261;28;20102;-73
2022/03/28 12:36:06;;;;;;;14.43;12.02;;;11.70;99.90;;;;;;5047589;28;20313;-74
2022/03/28 12:38:38;;;;;;;13.45;10.68;;;12.00;99.90;;;;;;5039740;28;20277;-74
2022/03/28 12:41:25;;;;;;;14.73;11.43;;;11.90;99.90;;;;;;5039911;28;20358;-74
2022/03/28 12:43:54;;;;;;;15.82;11.90;;;11.80;99.90;;;;;;5054298;28;20052;-74